Time;durP1;ratioP1;P1;durP2;ratioP2;P2;SDS_P1;SDS_P2;PMS_P1;PMS_P2;Temp;Humidity;BMP_temperature;BMP_pressure;BME280_temperature;BME280_humidity;BME280_pressure;Samples;Min_cycle;Max_cycle;Signal;HPM_P1;HPM_P2
2021/07/29 00:00:07;;;;;;;6.80;3.77;;;17.50;99.90;;;;;;5049727;28;20712;-79
2021/07/29 00:02:35;;;;;;;5.00;3.47;;;17.50;99.90;;;;;;5046062;28;20245;-80
2021/07/29 00:05:05;;;;;;;5.83;4.10;;;17.50;99.90;;;;;;5047458;28;20232;-78
2021/07/29 00:07:33;;;;;;;4.73;4.00;;;17.40;99.90;;;;;;5044537;28;20312;-78
2021/07/29 00:10:04;;;;;;;5.37;3.80;;;17.40;99.90;;;;;;5049429;28;20250;-77
2021/07/29 00:12:32;;;;;;;5.33;3.93;;;17.40;99.90;;;;;;5068126;28;20302;-79
2021/07/29 00:15:00;;;;;;;5.27;3.83;;;17.40;99.90;;;;;;5068177;28;20236;-79
2021/07/29 00:19:00;;;;;;;4.40;3.40;;;17.40;99.90;;;;;;5044182;28;20768;-78
2021/07/29 00:20:18;;;;;;;5.40;4.00;;;17.40;99.90;;;;;;5033458;28;20292;-79
2021/07/29 00:22:49;;;;;;;6.13;3.83;;;17.40;99.90;;;;;;5055581;28;20247;-78
2021/07/29 00:25:18;;;;;;;4.50;3.90;;;17.40;99.90;;;;;;5049079;28;20247;-78
2021/07/29 00:27:47;;;;;;;6.67;3.73;;;17.40;99.90;;;;;;5038630;28;20267;-78
2021/07/29 00:30:16;;;;;;;6.10;4.17;;;17.40;99.90;;;;;;5046400;28;20240;-79
2021/07/29 00:32:45;;;;;;;6.10;3.90;;;17.30;99.90;;;;;;5044384;28;20327;-79
2021/07/29 00:35:15;;;;;;;6.23;3.60;;;17.40;99.90;;;;;;5048861;28;20237;-79
2021/07/29 00:37:44;;;;;;;5.67;4.17;;;17.40;99.90;;;;;;5067130;28;20865;-78
2021/07/29 00:40:13;;;;;;;6.77;3.50;;;17.30;99.90;;;;;;5066717;28;20235;-79
2021/07/29 00:42:43;;;;;;;4.37;3.73;;;17.30;99.90;;;;;;5048333;28;20632;-79
2021/07/29 00:45:12;;;;;;;6.47;4.27;;;17.30;99.90;;;;;;5048470;28;20240;-80
2021/07/29 00:47:42;;;;;;;6.43;3.93;;;17.30;99.90;;;;;;5052074;28;20760;-79
2021/07/29 00:50:12;;;;;;;5.83;3.80;;;17.30;99.90;;;;;;5048003;28;20322;-79
2021/07/29 00:52:41;;;;;;;3.93;3.50;;;17.40;99.90;;;;;;5043133;28;20340;-79
2021/07/29 00:55:11;;;;;;;5.37;3.77;;;17.40;99.90;;;;;;5047090;28;20243;-80
2021/07/29 00:57:39;;;;;;;5.93;3.70;;;17.40;99.90;;;;;;5045761;28;20328;-78
2021/07/29 01:00:10;;;;;;;5.63;3.40;;;17.30;99.90;;;;;;5048487;28;20290;-79
2021/07/29 01:02:38;;;;;;;5.00;3.50;;;17.40;99.90;;;;;;5046294;28;20232;-79
2021/07/29 01:05:11;;;;;;;4.97;3.67;;;17.30;99.90;;;;;;5028310;28;20243;-78
2021/07/29 01:07:39;;;;;;;5.10;3.70;;;17.30;99.90;;;;;;5040738;28;20367;-79
2021/07/29 01:10:08;;;;;;;6.73;3.47;;;17.30;99.90;;;;;;5047936;28;20232;-78
2021/07/29 01:12:36;;;;;;;6.17;3.53;;;17.30;99.90;;;;;;5047504;28;20244;-78
2021/07/29 01:15:05;;;;;;;8.23;3.80;;;17.20;99.90;;;;;;5046242;28;20235;-78
2021/07/29 01:17:34;;;;;;;4.90;3.33;;;17.20;99.90;;;;;;5047560;28;20240;-78
2021/07/29 01:20:03;;;;;;;6.57;3.50;;;17.20;99.90;;;;;;5047261;28;20320;-78
2021/07/29 01:22:35;;;;;;;6.50;3.30;;;17.20;99.90;;;;;;5047366;28;20240;-79
2021/07/29 01:25:04;;;;;;;4.60;3.20;;;17.20;99.90;;;;;;5047822;28;20244;-78
2021/07/29 01:27:32;;;;;;;5.30;3.60;;;17.10;99.90;;;;;;5041876;28;20352;-78
2021/07/29 01:30:01;;;;;;;6.57;3.53;;;17.10;99.90;;;;;;5047596;28;20238;-80
2021/07/29 01:32:30;;;;;;;5.27;3.50;;;17.10;99.90;;;;;;5047479;28;20240;-77
2021/07/29 01:34:59;;;;;;;6.33;3.40;;;17.10;99.90;;;;;;5063334;28;20240;-79
2021/07/29 01:37:27;;;;;;;4.20;3.40;;;17.10;99.90;;;;;;5045964;28;20238;-79
2021/07/29 01:39:57;;;;;;;5.60;3.10;;;17.10;99.90;;;;;;5047866;28;20238;-79
2021/07/29 01:42:25;;;;;;;4.90;3.30;;;17.10;99.90;;;;;;5041721;28;20750;-79
2021/07/29 01:44:54;;;;;;;5.67;3.20;;;17.10;99.90;;;;;;5046875;28;20282;-78
2021/07/29 01:47:22;;;;;;;4.53;3.30;;;17.00;99.90;;;;;;5042135;28;20235;-79
2021/07/29 01:49:50;;;;;;;3.53;3.20;;;17.00;99.90;;;;;;5047735;28;20789;-79
2021/07/29 01:52:18;;;;;;;4.40;3.20;;;17.10;99.90;;;;;;5042163;28;20584;-79
2021/07/29 01:54:47;;;;;;;5.13;3.47;;;17.10;99.90;;;;;;5045907;28;20323;-79
2021/07/29 01:57:16;;;;;;;8.47;4.00;;;17.00;99.90;;;;;;5042809;28;20236;-78
2021/07/29 01:59:44;;;;;;;7.33;3.27;;;17.00;99.90;;;;;;5027996;28;20244;-79
2021/07/29 02:02:13;;;;;;;4.03;3.20;;;16.90;99.90;;;;;;5042438;28;20240;-79
2021/07/29 02:04:41;;;;;;;5.10;3.20;;;16.90;99.90;;;;;;5047884;28;20235;-78
2021/07/29 02:07:09;;;;;;;5.80;2.97;;;16.90;99.90;;;;;;5042174;28;20293;-78
2021/07/29 02:09:37;;;;;;;6.07;3.30;;;16.90;99.90;;;;;;5045710;28;20264;-78
2021/07/29 02:12:06;;;;;;;3.97;2.90;;;16.90;99.90;;;;;;5046839;28;20437;-78
2021/07/29 02:14:36;;;;;;;6.57;3.07;;;16.80;99.90;;;;;;5048178;28;20236;-78
2021/07/29 02:17:04;;;;;;;9.20;3.90;;;16.90;99.90;;;;;;5042699;28;20251;-78
2021/07/29 02:19:32;;;;;;;5.27;3.17;;;16.80;99.90;;;;;;5046973;28;20231;-79
2021/07/29 02:22:00;;;;;;;7.03;3.33;;;16.80;99.90;;;;;;5044659;28;20322;-78
2021/07/29 02:24:28;;;;;;;5.57;3.23;;;16.80;99.90;;;;;;5046414;28;20327;-79
2021/07/29 02:26:57;;;;;;;6.63;3.77;;;16.80;99.90;;;;;;5046643;28;20318;-78
2021/07/29 02:29:25;;;;;;;5.00;3.40;;;16.80;99.90;;;;;;5046874;28;20248;-79
2021/07/29 02:31:54;;;;;;;4.73;3.17;;;16.80;99.90;;;;;;5041630;28;20231;-78
2021/07/29 02:34:23;;;;;;;3.90;3.50;;;16.80;99.90;;;;;;5032907;28;20323;-79
2021/07/29 02:36:51;;;;;;;4.67;3.20;;;16.80;99.90;;;;;;5035023;28;20260;-77
2021/07/29 02:39:20;;;;;;;4.33;3.03;;;16.70;99.90;;;;;;5040039;28;20239;-78
2021/07/29 02:41:48;;;;;;;4.60;3.40;;;16.70;99.90;;;;;;5050760;28;20244;-79
2021/07/29 02:44:16;;;;;;;3.77;3.10;;;16.70;99.90;;;;;;5037477;28;20247;-79
2021/07/29 02:46:45;;;;;;;5.63;3.10;;;16.70;99.90;;;;;;5043338;28;20232;-80
2021/07/29 02:49:14;;;;;;;5.33;3.20;;;16.70;99.90;;;;;;5050868;28;20235;-79
2021/07/29 02:51:42;;;;;;;5.40;3.20;;;16.70;99.90;;;;;;5048809;28;20239;-79
2021/07/29 02:54:10;;;;;;;4.27;3.27;;;16.70;99.90;;;;;;5050454;28;20242;-78
2021/07/29 02:56:38;;;;;;;3.77;3.47;;;16.70;99.90;;;;;;5043929;28;20236;-78
2021/07/29 02:59:07;;;;;;;3.50;3.03;;;16.70;99.90;;;;;;5050725;28;20239;-77
2021/07/29 03:01:35;;;;;;;6.87;3.20;;;16.60;99.90;;;;;;5046393;28;20282;-78
2021/07/29 03:04:03;;;;;;;5.10;3.23;;;16.60;99.90;;;;;;5049749;28;20244;-79
2021/07/29 03:06:34;;;;;;;4.33;3.30;;;16.70;99.90;;;;;;5044789;28;20645;-78
2021/07/29 03:09:03;;;;;;;3.93;3.30;;;16.70;99.90;;;;;;5048871;28;20732;-79
2021/07/29 03:11:31;;;;;;;6.20;3.40;;;16.70;99.90;;;;;;5044199;28;23259;-79
2021/07/29 03:14:00;;;;;;;5.83;3.40;;;16.70;99.90;;;;;;5048898;28;20236;-78
2021/07/29 03:16:29;;;;;;;4.40;3.00;;;16.70;99.90;;;;;;5048260;28;20323;-79
2021/07/29 03:18:57;;;;;;;4.13;3.73;;;16.70;99.90;;;;;;5049092;28;20600;-79
2021/07/29 03:21:25;;;;;;;5.27;3.20;;;16.70;99.90;;;;;;5042318;28;20661;-80
2021/07/29 03:23:55;;;;;;;4.67;3.20;;;16.70;99.90;;;;;;5048395;28;20232;-79
2021/07/29 03:26:23;;;;;;;3.93;3.30;;;16.70;99.90;;;;;;5043548;28;20269;-78
2021/07/29 03:28:51;;;;;;;4.33;3.67;;;16.70;99.90;;;;;;5048548;28;20243;-80
2021/07/29 03:31:19;;;;;;;4.27;3.50;;;16.60;99.90;;;;;;5048754;28;20234;-78
2021/07/29 03:33:47;;;;;;;3.93;3.30;;;16.60;99.90;;;;;;5048322;28;20310;-78
2021/07/29 03:36:15;;;;;;;5.67;3.60;;;16.60;99.90;;;;;;5054100;28;20315;-78
2021/07/29 03:38:43;;;;;;;6.93;3.90;;;16.60;99.90;;;;;;5047074;28;20243;-78
2021/07/29 03:41:13;;;;;;;3.80;3.27;;;16.60;99.90;;;;;;5056698;28;20231;-79
2021/07/29 03:43:41;;;;;;;4.77;3.40;;;16.60;99.90;;;;;;5050667;28;20634;-80
2021/07/29 03:46:10;;;;;;;5.10;3.43;;;16.60;99.90;;;;;;5048629;28;20315;-79
2021/07/29 03:48:39;;;;;;;5.57;3.60;;;16.50;99.90;;;;;;5048537;28;20243;-79
2021/07/29 03:51:12;;;;;;;6.30;3.63;;;16.50;99.90;;;;;;5042989;28;20755;-78
2021/07/29 03:53:40;;;;;;;4.17;3.40;;;16.50;99.90;;;;;;5048159;28;20267;-78
2021/07/29 03:56:08;;;;;;;6.83;3.67;;;16.60;99.90;;;;;;5044136;28;20701;-78
2021/07/29 03:58:38;;;;;;;3.20;2.90;;;16.60;99.90;;;;;;5048186;28;20286;-79
2021/07/29 04:01:09;;;;;;;5.60;3.53;;;16.60;99.90;;;;;;5041208;28;20260;-78
2021/07/29 04:03:37;;;;;;;5.07;3.80;;;16.60;99.90;;;;;;5040995;28;20243;-79
2021/07/29 04:06:05;;;;;;;6.77;3.10;;;16.50;99.90;;;;;;5042908;28;20246;-78
2021/07/29 04:08:33;;;;;;;4.70;3.30;;;16.50;99.90;;;;;;5047722;28;20239;-78
2021/07/29 04:11:06;;;;;;;6.07;3.43;;;16.60;99.90;;;;;;5042643;28;20328;-78
2021/07/29 04:13:34;;;;;;;4.17;3.20;;;16.60;99.90;;;;;;5047538;28;20293;-77
2021/07/29 04:16:05;;;;;;;4.40;3.17;;;16.60;99.90;;;;;;5049960;28;20239;-80
2021/07/29 04:18:33;;;;;;;4.73;2.90;;;16.70;99.90;;;;;;5047562;28;20819;-79
2021/07/29 04:21:01;;;;;;;5.60;3.50;;;16.60;99.90;;;;;;5047229;28;20239;-79
2021/07/29 04:23:29;;;;;;;4.87;3.13;;;16.70;99.90;;;;;;5047232;28;20232;-78
2021/07/29 04:25:58;;;;;;;4.50;2.97;;;16.70;99.90;;;;;;5047658;28;20232;-78
2021/07/29 04:28:26;;;;;;;4.67;3.17;;;16.70;99.90;;;;;;5047447;28;20239;-79
2021/07/29 04:30:54;;;;;;;3.50;3.20;;;16.70;99.90;;;;;;5042116;28;20243;-79
2021/07/29 04:33:24;;;;;;;4.50;3.10;;;16.70;99.90;;;;;;5047038;28;20628;-78
2021/07/29 04:35:52;;;;;;;4.20;3.60;;;16.70;99.90;;;;;;5047551;28;20232;-78
2021/07/29 04:38:20;;;;;;;6.17;3.47;;;16.80;99.90;;;;;;5046184;28;20286;-79
2021/07/29 04:40:48;;;;;;;6.10;3.43;;;16.80;99.90;;;;;;5052065;28;20739;-79
2021/07/29 04:43:16;;;;;;;3.60;2.97;;;16.80;99.90;;;;;;5038900;28;20282;-78
2021/07/29 04:45:44;;;;;;;8.30;3.20;;;16.80;99.90;;;;;;5042964;28;20232;-79
2021/07/29 04:48:12;;;;;;;4.33;3.50;;;16.80;99.90;;;;;;5046314;28;20224;-78
2021/07/29 04:50:42;;;;;;;3.83;3.10;;;16.80;99.90;;;;;;5042506;28;20231;-79
2021/07/29 04:53:10;;;;;;;4.40;3.23;;;16.80;99.90;;;;;;5046114;28;20236;-79
2021/07/29 04:55:38;;;;;;;6.60;2.97;;;16.80;99.90;;;;;;5047054;28;20600;-78
2021/07/29 04:58:06;;;;;;;4.07;3.10;;;16.80;99.90;;;;;;5046948;28;20322;-79
2021/07/29 05:00:34;;;;;;;5.10;3.23;;;16.80;99.90;;;;;;5046794;28;20321;-79
2021/07/29 05:03:03;;;;;;;6.43;3.00;;;16.90;99.90;;;;;;5046757;28;20236;-79
2021/07/29 05:05:31;;;;;;;4.30;2.90;;;16.90;99.90;;;;;;5044267;28;20250;-79
2021/07/29 05:08:01;;;;;;;5.93;2.77;;;17.00;99.90;;;;;;5044005;28;20235;-78
2021/07/29 05:10:29;;;;;;;4.10;2.70;;;17.10;99.90;;;;;;5040133;28;20314;-78
2021/07/29 05:12:57;;;;;;;5.37;2.77;;;17.10;99.90;;;;;;5043768;28;20256;-78
2021/07/29 05:15:25;;;;;;;7.37;2.93;;;17.10;99.90;;;;;;5043698;28;20249;-79
2021/07/29 05:17:55;;;;;;;6.83;2.93;;;17.20;99.90;;;;;;5045378;28;20236;-78
2021/07/29 05:20:23;;;;;;;3.67;2.63;;;17.20;99.90;;;;;;5043241;28;20239;-79
2021/07/29 05:22:52;;;;;;;5.10;2.97;;;17.20;99.90;;;;;;5041558;28;20251;-78
2021/07/29 05:25:24;;;;;;;5.93;2.40;;;17.20;99.90;;;;;;5044422;28;20239;-79
2021/07/29 05:27:52;;;;;;;5.93;2.67;;;17.40;99.90;;;;;;5041371;28;20649;-79
2021/07/29 05:30:21;;;;;;;7.93;2.63;;;17.40;99.90;;;;;;5045846;28;20759;-78
2021/07/29 05:32:49;;;;;;;6.90;2.67;;;17.50;99.90;;;;;;5063388;28;20223;-78
2021/07/29 05:35:17;;;;;;;6.47;2.40;;;17.70;99.90;;;;;;5064598;28;20277;-78
2021/07/29 05:37:45;;;;;;;4.80;2.60;;;17.80;99.90;;;;;;5040636;28;20279;-79
2021/07/29 05:40:14;;;;;;;6.60;2.80;;;18.00;99.90;;;;;;5044339;28;20512;-80
2021/07/29 05:42:43;;;;;;;4.07;2.20;;;18.00;99.90;;;;;;5040100;28;20248;-79
2021/07/29 05:45:12;;;;;;;4.70;2.57;;;18.10;99.90;;;;;;5041334;28;20244;-80
2021/07/29 05:47:41;;;;;;;4.43;2.47;;;18.30;99.90;;;;;;5040054;28;20232;-79
2021/07/29 05:50:11;;;;;;;6.23;2.50;;;18.40;99.90;;;;;;5040952;28;20286;-79
2021/07/29 05:52:39;;;;;;;5.40;2.60;;;18.20;99.90;;;;;;5038610;28;20610;-79
2021/07/29 05:55:07;;;;;;;4.07;2.50;;;18.20;99.90;;;;;;5043490;28;20685;-79
2021/07/29 05:57:36;;;;;;;4.43;2.50;;;18.20;99.90;;;;;;5041035;28;20248;-79
2021/07/29 06:00:07;;;;;;;7.80;2.63;;;18.30;99.90;;;;;;5042686;28;20297;-78
2021/07/29 06:02:38;;;;;;;4.77;2.23;;;18.50;99.90;;;;;;5030573;28;20322;-78
2021/07/29 06:05:07;;;;;;;6.83;2.40;;;18.70;99.90;;;;;;5044312;28;20233;-78
2021/07/29 06:07:36;;;;;;;4.50;2.47;;;19.00;99.90;;;;;;5047913;28;20252;-78
2021/07/29 06:10:05;;;;;;;6.13;2.77;;;19.10;99.90;;;;;;5045174;28;20241;-79
2021/07/29 06:12:33;;;;;;;7.60;2.70;;;19.10;99.90;;;;;;5045955;28;20238;-77
2021/07/29 06:15:02;;;;;;;6.73;2.20;;;18.90;99.90;;;;;;5047201;28;20637;-78
2021/07/29 06:17:33;;;;;;;6.60;2.60;;;19.00;99.90;;;;;;5045267;28;20710;-79
2021/07/29 06:20:05;;;;;;;5.07;2.67;;;19.00;99.90;;;;;;5049706;28;20238;-77
2021/07/29 06:22:33;;;;;;;9.23;2.93;;;19.00;99.90;;;;;;5054820;28;20233;-77
2021/07/29 06:25:05;;;;;;;7.60;3.07;;;18.70;99.90;;;;;;5049482;28;20280;-80
2021/07/29 06:27:33;;;;;;;5.53;2.60;;;18.60;99.90;;;;;;5043847;28;20243;-78
2021/07/29 06:30:02;;;;;;;8.07;2.90;;;18.60;99.90;;;;;;5047054;28;20246;-78
2021/07/29 06:32:31;;;;;;;5.87;2.37;;;18.70;99.90;;;;;;5040186;28;20244;-78
2021/07/29 06:34:59;;;;;;;6.37;2.50;;;18.80;99.90;;;;;;5048705;28;20253;-78
2021/07/29 06:37:28;;;;;;;6.17;2.40;;;18.90;99.90;;;;;;5067675;28;20248;-79
2021/07/29 06:39:56;;;;;;;6.00;2.57;;;19.00;99.90;;;;;;5061830;28;20234;-81
2021/07/29 06:42:24;;;;;;;4.87;2.60;;;18.90;99.90;;;;;;5043633;28;20665;-79
2021/07/29 06:44:53;;;;;;;5.67;2.50;;;19.00;99.90;;;;;;5046230;28;20232;-80
2021/07/29 06:47:21;;;;;;;7.70;2.50;;;19.10;99.90;;;;;;5048678;28;20732;-79
2021/07/29 06:49:51;;;;;;;8.70;2.53;;;19.00;99.90;;;;;;5048641;28;20237;-79
2021/07/29 06:52:19;;;;;;;5.03;2.33;;;19.30;99.90;;;;;;5039900;28;20239;-78
2021/07/29 06:54:47;;;;;;;6.90;2.23;;;19.50;99.90;;;;;;5038119;28;20230;-78
2021/07/29 06:57:15;;;;;;;8.60;2.30;;;19.20;99.90;;;;;;5042892;28;20239;-77
2021/07/29 06:59:43;;;;;;;5.50;2.80;;;19.40;99.90;;;;;;5048402;28;20391;-79
2021/07/29 07:02:11;;;;;;;4.77;2.40;;;19.20;99.90;;;;;;5043265;28;20263;-79
2021/07/29 07:04:40;;;;;;;4.77;2.53;;;19.30;99.90;;;;;;5045277;28;20295;-78
2021/07/29 07:07:15;;;;;;;5.27;2.30;;;19.30;99.90;;;;;;5049036;28;20381;-77
2021/07/29 07:09:44;;;;;;;5.77;2.20;;;19.30;99.90;;;;;;5046121;28;20234;-80
2021/07/29 07:12:13;;;;;;;7.03;2.17;;;19.60;99.90;;;;;;5041201;28;20702;-78
2021/07/29 07:14:41;;;;;;;7.20;2.20;;;19.70;99.90;;;;;;5048850;28;20729;-78
2021/07/29 07:17:09;;;;;;;5.97;2.30;;;19.80;99.90;;;;;;5047135;28;20284;-77
2021/07/29 07:19:38;;;;;;;6.70;2.13;;;20.10;99.90;;;;;;5048375;28;20235;-79
2021/07/29 07:22:06;;;;;;;6.53;2.00;;;20.60;99.90;;;;;;5052889;28;20245;-81
2021/07/29 07:24:36;;;;;;;5.40;1.83;;;20.50;99.90;;;;;;5048148;28;21026;-82
2021/07/29 07:27:06;;;;;;;4.07;1.97;;;20.50;99.90;;;;;;5049561;28;20246;-81
2021/07/29 07:29:35;;;;;;;4.80;2.10;;;20.60;99.90;;;;;;5050082;28;20238;-82
2021/07/29 07:32:04;;;;;;;8.60;2.00;;;20.60;99.90;;;;;;5058547;28;20235;-82
2021/07/29 07:34:32;;;;;;;5.27;2.23;;;20.20;99.90;;;;;;5048235;28;20276;-82
2021/07/29 07:37:00;;;;;;;6.70;2.20;;;20.30;99.90;;;;;;5041711;28;20345;-82
2021/07/29 07:39:28;;;;;;;4.43;2.10;;;20.30;99.90;;;;;;5047841;28;20594;-82
2021/07/29 07:41:57;;;;;;;5.47;1.97;;;20.30;99.90;;;;;;5046100;28;20594;-82
2021/07/29 07:44:26;;;;;;;4.40;1.93;;;20.30;99.90;;;;;;5047986;28;20250;-82
2021/07/29 07:46:54;;;;;;;5.80;2.30;;;20.50;99.90;;;;;;5034353;28;20235;-82
2021/07/29 07:49:22;;;;;;;7.33;2.27;;;20.60;99.90;;;;;;5047914;28;20234;-82
2021/07/29 07:51:50;;;;;;;6.37;2.53;;;20.40;99.90;;;;;;5065100;28;20676;-83
2021/07/29 07:54:18;;;;;;;4.17;1.80;;;20.90;99.90;;;;;;5040042;28;20276;-82
2021/07/29 07:56:46;;;;;;;7.80;2.23;;;20.90;99.90;;;;;;5044676;28;20243;-81
2021/07/29 07:59:16;;;;;;;5.07;1.77;;;21.00;99.90;;;;;;5043927;28;20231;-82
2021/07/29 08:01:44;;;;;;;8.10;2.50;;;21.50;99.90;;;;;;5043491;28;20911;-82
2021/07/29 08:04:13;;;;;;;5.30;2.20;;;21.40;99.90;;;;;;5048703;28;20289;-82
2021/07/29 08:06:41;;;;;;;5.97;2.00;;;21.80;99.90;;;;;;5048275;28;20634;-81
2021/07/29 08:09:09;;;;;;;5.43;1.60;;;21.60;99.90;;;;;;5049150;28;20318;-82
2021/07/29 08:11:50;;;;;;;7.70;2.00;;;21.50;99.90;;;;;;2410540;28;10023154;-82
2021/07/29 08:14:20;;;;;;;6.97;1.87;;;21.70;99.90;;;;;;3996266;28;10000938;-82
2021/07/29 08:16:48;;;;;;;5.03;1.40;;;21.80;99.90;;;;;;5061926;28;20230;-83
2021/07/29 08:19:16;;;;;;;4.90;1.63;;;21.40;99.90;;;;;;5068748;28;20242;-81
2021/07/29 08:21:44;;;;;;;5.30;1.50;;;21.00;99.90;;;;;;5042988;28;20232;-81
2021/07/29 08:24:12;;;;;;;5.73;1.67;;;21.20;99.90;;;;;;5046737;28;20247;-79
2021/07/29 08:26:40;;;;;;;5.87;2.13;;;21.00;99.90;;;;;;5048526;28;20228;-80
2021/07/29 08:29:09;;;;;;;5.57;1.80;;;21.20;99.90;;;;;;5058756;28;20711;-79
2021/07/29 08:31:38;;;;;;;3.90;1.60;;;21.70;99.90;;;;;;5035022;28;21047;-79
2021/07/29 08:34:07;;;;;;;4.67;1.70;;;22.10;99.90;;;;;;5047964;28;20240;-80
2021/07/29 08:36:35;;;;;;;4.77;1.57;;;22.20;99.90;;;;;;5047428;28;20236;-80
2021/07/29 08:39:03;;;;;;;4.37;1.30;;;22.30;99.90;;;;;;5048235;28;20239;-80
2021/07/29 08:41:31;;;;;;;4.83;1.47;;;22.50;99.90;;;;;;5046752;28;20230;-80
2021/07/29 08:43:59;;;;;;;1.80;1.10;;;23.00;99.90;;;;;;5047695;28;20243;-79
2021/07/29 08:46:27;;;;;;;6.97;1.37;;;23.20;99.90;;;;;;5047797;28;20321;-80
2021/07/29 08:48:57;;;;;;;5.20;1.50;;;23.30;99.90;;;;;;5048021;28;20258;-80
2021/07/29 08:51:25;;;;;;;4.40;1.50;;;23.20;99.90;;;;;;5043216;28;20243;-81
2021/07/29 08:53:54;;;;;;;4.63;1.60;;;23.00;99.90;;;;;;5046548;28;20587;-82
2021/07/29 08:56:24;;;;;;;3.93;1.20;;;23.10;99.90;;;;;;5045595;28;20323;-80
2021/07/29 08:58:53;;;;;;;3.90;1.30;;;23.10;99.90;;;;;;5048431;28;20236;-80
2021/07/29 09:01:21;;;;;;;4.30;1.37;;;23.10;99.90;;;;;;5040991;28;20247;-80
2021/07/29 09:03:52;;;;;;;4.00;1.60;;;22.80;99.90;;;;;;5036863;28;20557;-80
2021/07/29 09:06:22;;;;;;;3.97;1.30;;;22.30;99.90;;;;;;5046593;28;20237;-81
2021/07/29 09:08:52;;;;;;;3.23;1.30;;;22.40;99.90;;;;;;5041128;28;20234;-80
2021/07/29 09:11:36;;;;;;;3.60;1.40;;;22.60;99.90;;;;;;5042312;28;20235;-82
2021/07/29 09:14:11;;;;;;;5.17;1.30;;;22.70;99.90;;;;;;5047766;28;20310;-80
2021/07/29 09:16:57;;;;;;;3.90;1.20;;;22.50;99.90;;;;;;5047983;28;20234;-79
2021/07/29 09:19:36;;;;;;;8.90;1.73;;;22.30;99.90;;;;;;5038647;28;20275;-80
2021/07/29 09:22:13;;;;;;;8.97;1.60;;;22.10;99.90;;;;;;5035264;28;20642;-80
2021/07/29 09:25:02;;;;;;;5.37;1.43;;;21.80;99.90;;;;;;5038748;28;20246;-81
2021/07/29 09:27:45;;;;;;;4.07;1.23;;;22.20;99.90;;;;;;5043325;28;20292;-80
2021/07/29 09:30:17;;;;;;;3.47;1.37;;;22.40;99.90;;;;;;5038627;28;20708;-81
2021/07/29 09:33:00;;;;;;;8.03;1.47;;;22.30;99.90;;;;;;5045229;28;21747;-80
2021/07/29 09:35:35;;;;;;;4.83;1.43;;;21.90;99.90;;;;;;5047628;28;20317;-82
2021/07/29 09:38:07;;;;;;;5.37;1.37;;;21.50;99.90;;;;;;5043979;28;20237;-80
2021/07/29 09:40:50;;;;;;;4.73;1.43;;;21.50;99.90;;;;;;5053556;28;20245;-81
2021/07/29 09:43:20;;;;;;;6.80;1.70;;;21.50;99.90;;;;;;5060130;28;20717;-81
2021/07/29 09:45:50;;;;;;;9.57;1.80;;;21.70;99.90;;;;;;5043692;28;20632;-80
2021/07/29 09:48:21;;;;;;;3.67;1.10;;;21.50;99.90;;;;;;5036128;28;20241;-80
2021/07/29 09:50:50;;;;;;;4.07;1.30;;;21.40;99.90;;;;;;5049650;28;20244;-79
2021/07/29 09:53:20;;;;;;;6.73;1.77;;;21.70;99.90;;;;;;5039129;28;20221;-80
2021/07/29 09:55:48;;;;;;;4.57;1.73;;;22.40;99.90;;;;;;5035218;28;20255;-82
2021/07/29 09:58:17;;;;;;;4.20;1.67;;;22.90;99.90;;;;;;5032972;28;20494;-79
2021/07/29 10:00:45;;;;;;;5.40;1.30;;;22.50;99.90;;;;;;5043256;28;20245;-81
2021/07/29 10:03:15;;;;;;;3.90;1.40;;;22.00;99.90;;;;;;5042693;28;20285;-78
2021/07/29 10:05:52;;;;;;;6.37;1.30;;;21.50;99.90;;;;;;5037561;28;20232;-84
2021/07/29 10:08:30;;;;;;;3.97;1.60;;;21.30;99.90;;;;;;5028885;28;20257;-80
2021/07/29 10:11:00;;;;;;;4.10;1.43;;;21.00;99.90;;;;;;5055440;28;20228;-79
2021/07/29 10:13:35;;;;;;;5.77;1.50;;;21.30;99.90;;;;;;5039879;28;20252;-80
2021/07/29 10:16:05;;;;;;;3.60;1.60;;;21.90;99.90;;;;;;5037429;28;20240;-79
2021/07/29 10:19:04;;;;;;;3.93;1.40;;;22.10;99.90;;;;;;5040102;28;20305;-80
2021/07/29 10:21:35;;;;;;;6.07;1.50;;;22.60;99.90;;;;;;5037545;28;20247;-80
2021/07/29 10:24:05;;;;;;;7.40;1.70;;;23.00;99.90;;;;;;5038418;28;20255;-82
2021/07/29 10:26:35;;;;;;;7.27;1.47;;;23.50;99.90;;;;;;5042153;28;20236;-79
2021/07/29 10:29:23;;;;;;;5.57;1.57;;;23.60;99.90;;;;;;5032635;28;20340;-79
2021/07/29 10:31:53;;;;;;;4.13;1.77;;;23.10;99.90;;;;;;5045165;28;20247;-80
2021/07/29 10:34:26;;;;;;;5.13;1.70;;;23.30;99.90;;;;;;5043783;28;20227;-79
2021/07/29 10:36:54;;;;;;;6.20;1.70;;;23.70;99.90;;;;;;5043864;28;20232;-80
2021/07/29 10:39:24;;;;;;;9.60;1.83;;;23.50;99.90;;;;;;5045802;28;20323;-78
2021/07/29 10:41:55;;;;;;;3.93;1.50;;;22.70;99.90;;;;;;5040215;28;20239;-79
2021/07/29 10:44:46;;;;;;;5.20;1.80;;;22.70;99.90;;;;;;5043412;28;20314;-80
2021/07/29 10:47:18;;;;;;;4.03;1.47;;;22.90;99.90;;;;;;5044472;28;20232;-80
2021/07/29 10:50:17;;;;;;;3.33;1.50;;;23.40;99.90;;;;;;5045311;28;20247;-80
2021/07/29 10:52:47;;;;;;;3.13;1.53;;;23.90;99.90;;;;;;5044745;28;20236;-79
2021/07/29 10:55:18;;;;;;;4.23;1.80;;;24.50;99.90;;;;;;5044095;28;20242;-79
2021/07/29 10:58:06;;;;;;;6.07;1.73;;;24.60;99.90;;;;;;5041312;28;20247;-80
2021/07/29 11:00:35;;;;;;;3.37;1.37;;;24.40;99.90;;;;;;5027981;28;20247;-79
2021/07/29 11:03:10;;;;;;;4.70;1.40;;;24.50;99.90;;;;;;5046874;28;20429;-80
2021/07/29 11:05:43;;;;;;;5.17;1.60;;;24.50;99.90;;;;;;5049360;28;20235;-78
2021/07/29 11:08:13;;;;;;;5.13;1.50;;;24.10;99.90;;;;;;5048459;28;20766;-79
2021/07/29 11:10:43;;;;;;;7.10;1.70;;;24.20;99.90;;;;;;5043625;28;20319;-79
2021/07/29 11:13:14;;;;;;;5.07;1.57;;;24.10;99.90;;;;;;5049360;28;20722;-79
2021/07/29 11:15:43;;;;;;;4.00;1.50;;;23.90;99.90;;;;;;5052977;28;20285;-80
2021/07/29 11:18:15;;;;;;;4.73;1.30;;;24.10;99.90;;;;;;5051201;28;20228;-80
2021/07/29 11:20:43;;;;;;;4.57;1.40;;;23.90;99.90;;;;;;5045700;28;20781;-80
2021/07/29 11:23:14;;;;;;;5.03;1.80;;;24.20;99.90;;;;;;5048608;28;20242;-81
2021/07/29 11:26:01;;;;;;;6.03;1.60;;;23.90;99.90;;;;;;5063933;28;20495;-80
2021/07/29 11:28:29;;;;;;;5.57;1.50;;;23.90;99.90;;;;;;5041557;28;20229;-82
2021/07/29 11:31:18;;;;;;;7.20;1.80;;;24.10;99.90;;;;;;5042839;28;20236;-80
2021/07/29 11:33:52;;;;;;;4.90;1.40;;;23.90;99.90;;;;;;5041499;28;20239;-81
2021/07/29 11:36:20;;;;;;;3.70;1.40;;;23.60;99.90;;;;;;5054960;28;20596;-82
2021/07/29 11:39:00;;;;;;;5.77;1.77;;;23.30;99.90;;;;;;5046443;28;20779;-79
2021/07/29 11:41:31;;;;;;;3.57;1.43;;;23.10;99.90;;;;;;5051962;28;20760;-80
2021/07/29 11:44:00;;;;;;;5.53;1.57;;;22.80;99.90;;;;;;5042313;28;20238;-82
2021/07/29 11:46:29;;;;;;;6.93;1.70;;;22.60;99.90;;;;;;5030684;28;20236;-82
2021/07/29 11:49:07;;;;;;;7.03;1.80;;;22.60;99.90;;;;;;5045695;28;20271;-81
2021/07/29 11:51:35;;;;;;;4.97;1.90;;;22.50;99.90;;;;;;5046542;28;20242;-80
2021/07/29 11:54:04;;;;;;;5.60;1.70;;;22.50;99.90;;;;;;5039426;28;20293;-81
2021/07/29 11:56:41;;;;;;;4.27;1.33;;;23.10;99.90;;;;;;5038910;28;20235;-80
2021/07/29 11:59:10;;;;;;;4.30;1.53;;;24.00;99.90;;;;;;5044318;28;20244;-81
2021/07/29 12:01:48;;;;;;;7.77;1.80;;;23.90;99.90;;;;;;5041275;28;20691;-80
2021/07/29 12:04:17;;;;;;;5.07;1.53;;;23.30;99.90;;;;;;5042531;28;20602;-81
2021/07/29 12:06:46;;;;;;;4.40;1.50;;;22.80;99.90;;;;;;5038841;28;20315;-80
2021/07/29 12:09:14;;;;;;;6.00;1.87;;;23.00;99.90;;;;;;5037873;28;20239;-81
2021/07/29 12:11:44;;;;;;;6.37;1.80;;;23.40;99.90;;;;;;5040088;28;20620;-81
2021/07/29 12:14:13;;;;;;;3.50;1.37;;;23.40;99.90;;;;;;5034837;28;20251;-82
2021/07/29 12:16:46;;;;;;;4.90;1.60;;;23.50;99.90;;;;;;5043109;28;20248;-77
2021/07/29 12:19:15;;;;;;;5.03;1.57;;;23.60;99.90;;;;;;5043713;28;20266;-79
2021/07/29 12:21:44;;;;;;;8.50;1.67;;;23.70;99.90;;;;;;5045798;28;20247;-79
2021/07/29 12:24:13;;;;;;;6.80;1.70;;;23.80;99.90;;;;;;5038475;28;20244;-81
2021/07/29 12:26:41;;;;;;;5.80;1.70;;;23.80;99.90;;;;;;5043020;28;20776;-78
2021/07/29 12:29:11;;;;;;;6.03;1.40;;;23.50;99.90;;;;;;5042297;28;20243;-80
2021/07/29 12:31:46;;;;;;;5.67;1.50;;;23.70;99.90;;;;;;5048640;28;20454;-78
2021/07/29 12:34:14;;;;;;;7.07;1.70;;;23.80;99.90;;;;;;5039421;28;20483;-82
2021/07/29 12:36:44;;;;;;;5.10;1.50;;;23.60;99.90;;;;;;5047751;28;20254;-81
2021/07/29 12:39:13;;;;;;;5.60;1.63;;;23.60;99.90;;;;;;5043738;28;20237;-81
2021/07/29 12:41:43;;;;;;;3.73;1.60;;;22.80;99.90;;;;;;5041014;28;20341;-81
2021/07/29 12:44:15;;;;;;;8.43;1.60;;;22.70;99.90;;;;;;5037583;28;20243;-79
2021/07/29 12:46:44;;;;;;;4.17;1.47;;;22.80;99.90;;;;;;5036269;28;21043;-78
2021/07/29 12:49:14;;;;;;;4.07;1.83;;;23.00;99.90;;;;;;5036393;28;20238;-80
2021/07/29 12:51:45;;;;;;;5.13;1.40;;;23.10;99.90;;;;;;5041013;28;20239;-80
2021/07/29 12:54:14;;;;;;;3.77;1.70;;;23.40;99.90;;;;;;5038199;28;20486;-79
2021/07/29 12:56:43;;;;;;;8.13;1.80;;;23.20;99.90;;;;;;5047398;28;20252;-80
2021/07/29 12:59:14;;;;;;;4.70;1.67;;;23.20;99.90;;;;;;5046976;28;20595;-80